KGWW

Wayne Executive Jetport Airport

Goldsboro, North Carolina, USA
METAR KGWW 280100Z AUTO 18006KT 10SM CLR 25/22 A3000 RMK AO2 T02540217
Observed Flight Rules
May-28 @ 01:00 UTC (26 minutes ago) Visual Flight Rules
Wind Visibility Clouds
180° at 6 knots 10 miles
  • Clear skies
Temperatures Readings
Current 25°C / 77°F
Dewpoint 22°C / 72°F
Humidity 83%
Altimeter 30" Hg
Pressure 1016 hPa
Elevation 41
METAR KGWW 280100Z AUTO 18006KT 10SM CLR 25/22 A3000 RMK AO2 T02540217
Observed Flight Rules
May-28 @ 01:00 UTC
(26 minutes ago)
VFR
Wind Visibility
180° at 6 knots 10 miles
Clouds
  • Clear skies
Temperature Dewpoint
25°C / 77°F 22°C / 72°F
Humidity Altimeter Pressure
83% 30" Hg 1016 hPa